createdAt,value
2023-04-15T00:03:46.420Z,62.85
2023-04-15T00:08:49.355Z,62.91
2023-04-15T00:13:51.415Z,63.37
2023-04-15T00:18:53.202Z,62.68
2023-04-15T00:23:55.459Z,63.19
2023-04-15T00:28:57.236Z,63.35
2023-04-15T00:33:59.822Z,63.30
2023-04-15T00:39:02.925Z,63.50
2023-04-15T00:44:08.370Z,63.73
2023-04-15T00:49:10.352Z,63.16
2023-04-15T00:54:13.141Z,63.10
2023-04-15T00:59:18.732Z,62.51
2023-04-15T01:04:20.588Z,63.11
2023-04-15T01:09:22.485Z,62.86
2023-04-15T01:14:26.083Z,63.57
2023-04-15T01:19:28.807Z,63.54
2023-04-15T01:24:32.131Z,63.36
2023-04-15T01:29:38.505Z,63.18
2023-04-15T01:34:40.891Z,63.37
2023-04-15T01:39:42.681Z,62.97
2023-04-15T01:44:44.507Z,63.08
2023-04-15T01:49:47.031Z,62.71
2023-04-15T01:54:48.985Z,62.28
2023-04-15T01:59:51.085Z,62.18
2023-04-15T02:04:53.671Z,62.40
2023-04-15T02:09:55.431Z,62.68
2023-04-15T02:14:57.489Z,63.24
2023-04-15T02:19:59.741Z,62.93
2023-04-15T02:25:01.522Z,63.13
2023-04-15T02:30:04.130Z,63.37
2023-04-15T02:35:07.729Z,63.15
2023-04-15T02:40:12.228Z,63.32
2023-04-15T02:45:14.222Z,63.70
2023-04-15T02:50:17.301Z,63.20
2023-04-15T02:55:19.163Z,63.22
2023-04-15T03:00:21.008Z,63.64
2023-04-15T03:05:25.568Z,64.02
2023-04-15T03:10:27.456Z,63.75
2023-04-15T03:15:29.516Z,63.56
2023-04-15T03:20:31.724Z,63.14
2023-04-15T03:25:33.662Z,63.19
2023-04-15T03:30:36.075Z,63.06
2023-04-15T03:35:38.326Z,63.51
2023-04-15T03:40:43.429Z,63.49
2023-04-15T03:45:45.361Z,64.31
2023-04-15T03:50:47.294Z,64.29
2023-04-15T03:55:49.052Z,62.99
2023-04-15T04:00:50.867Z,62.97
2023-04-15T04:05:52.673Z,63.46
2023-04-15T04:10:54.458Z,63.67
2023-04-15T04:15:56.298Z,63.66
2023-04-15T04:20:58.298Z,64.16
2023-04-15T04:26:00.059Z,64.32
2023-04-15T04:31:01.886Z,63.66
2023-04-15T04:36:03.938Z,64.23
2023-04-15T04:41:06.296Z,64.34
2023-04-15T04:46:08.070Z,63.97
2023-04-15T04:51:10.018Z,63.71
2023-04-15T04:56:11.852Z,63.90
2023-04-15T05:01:13.713Z,63.61
2023-04-15T05:06:15.739Z,63.74
2023-04-15T05:11:17.607Z,63.70
2023-04-15T05:16:20.121Z,63.47
2023-04-15T05:21:22.114Z,63.70
2023-04-15T05:26:24.415Z,63.68
2023-04-15T05:31:26.750Z,63.93
2023-04-15T05:36:28.887Z,63.60
2023-04-15T05:41:30.783Z,63.90
2023-04-15T05:46:32.620Z,64.00
2023-04-15T05:51:34.530Z,64.02
2023-04-15T05:56:37.046Z,64.27
2023-04-15T06:01:38.921Z,63.97
2023-04-15T06:06:41.131Z,63.94
2023-04-15T06:11:42.920Z,63.49
2023-04-15T06:16:44.687Z,64.04
2023-04-15T06:21:46.644Z,63.98
2023-04-15T06:26:48.501Z,63.96
2023-04-15T06:31:50.564Z,64.15
2023-04-15T06:36:52.350Z,63.59
2023-04-15T06:41:54.276Z,64.09
2023-04-15T06:46:56.744Z,64.20
2023-04-15T06:51:58.648Z,63.55
2023-04-15T06:57:00.417Z,63.62
2023-04-15T07:02:02.363Z,64.17
2023-04-15T07:07:04.166Z,63.90
2023-04-15T07:12:05.981Z,63.70
2023-04-15T07:17:09.015Z,63.73
2023-04-15T07:22:11.278Z,63.98
2023-04-15T07:27:13.084Z,63.85
2023-04-15T07:32:14.907Z,63.87
2023-04-15T07:37:16.768Z,63.23
2023-04-15T07:42:18.729Z,63.56
2023-04-15T07:47:21.145Z,63.02
2023-04-15T07:52:23.047Z,63.00
2023-04-15T07:57:24.836Z,62.84
2023-04-15T08:02:27.019Z,62.90
2023-04-15T08:07:28.921Z,62.40
2023-04-15T08:12:30.747Z,62.39
2023-04-15T08:17:32.576Z,62.06
2023-04-15T08:22:34.576Z,61.78
2023-04-15T08:27:36.732Z,61.65
2023-04-15T08:32:38.846Z,61.38
2023-04-15T08:37:40.675Z,61.24
2023-04-15T08:42:49.065Z,61.13
2023-04-15T08:47:56.465Z,60.71
2023-04-15T08:53:01.859Z,61.07
2023-04-15T08:58:04.702Z,60.74
2023-04-15T09:03:07.550Z,60.39
2023-04-15T09:08:09.620Z,60.14
2023-04-15T09:13:12.273Z,60.48
2023-04-15T09:18:27.240Z,60.63
2023-04-15T09:23:29.060Z,60.49
2023-04-15T09:28:31.625Z,60.20
2023-04-15T09:33:33.407Z,60.28
2023-04-15T09:38:35.159Z,60.14
2023-04-15T09:43:40.886Z,59.99
2023-04-15T09:48:42.790Z,59.96
2023-04-15T09:53:44.562Z,59.73
2023-04-15T09:58:46.777Z,59.89
2023-04-15T10:03:49.630Z,59.53
2023-04-15T10:08:51.671Z,59.52
2023-04-15T10:13:54.968Z,59.28
2023-04-15T10:18:58.710Z,59.54
2023-04-15T10:24:02.283Z,59.28
2023-04-15T10:29:05.009Z,59.31
2023-04-15T10:34:07.721Z,58.79
2023-04-15T10:39:45.272Z,59.04
2023-04-15T10:44:51.962Z,59.04
2023-04-15T10:50:03.720Z,59.20
2023-04-15T10:55:14.340Z,58.92
2023-04-15T11:00:17.932Z,58.73
2023-04-15T11:05:21.570Z,58.56
2023-04-15T11:10:31.335Z,58.48
2023-04-15T11:15:43.123Z,58.33
2023-04-15T11:20:52.720Z,58.02
2023-04-15T11:25:58.464Z,57.95
2023-04-15T11:31:07.360Z,57.68
2023-04-15T11:36:10.779Z,57.75
2023-04-15T11:41:12.935Z,57.91
2023-04-15T11:46:16.431Z,57.69
2023-04-15T11:51:21.086Z,57.51
2023-04-15T11:56:25.395Z,57.56
2023-04-15T12:01:39.666Z,57.37
2023-04-15T12:06:41.890Z,57.47
2023-04-15T12:11:53.316Z,57.28
2023-04-15T12:17:00.120Z,56.88
2023-04-15T12:22:08.991Z,57.07
2023-04-15T12:27:16.889Z,56.69
2023-04-15T12:32:22.948Z,56.96
2023-04-15T12:37:24.758Z,56.72
2023-04-15T12:42:27.759Z,56.50
2023-04-15T12:47:29.854Z,56.26
2023-04-15T12:52:32.352Z,56.18
2023-04-15T12:57:34.565Z,55.70
2023-04-15T13:02:37.136Z,55.74
2023-04-15T13:07:39.107Z,55.83
2023-04-15T13:12:41.721Z,55.76
2023-04-15T13:17:43.557Z,55.61
2023-04-15T13:22:45.532Z,55.49
2023-04-15T13:27:47.380Z,55.63
2023-04-15T13:32:50.886Z,55.43
2023-04-15T13:37:55.354Z,55.34
2023-04-15T13:42:58.664Z,55.53
2023-04-15T13:48:00.635Z,54.99
2023-04-15T13:53:02.563Z,54.78
2023-04-15T13:58:04.635Z,54.76
2023-04-15T14:03:06.743Z,54.61
2023-04-15T14:08:08.698Z,54.35
2023-04-15T14:13:10.619Z,54.42
2023-04-15T14:18:12.431Z,54.39
2023-04-15T14:23:14.450Z,54.10
2023-04-15T14:28:16.688Z,54.13
2023-04-15T14:33:18.662Z,53.86
2023-04-15T14:38:22.739Z,53.65
2023-04-15T14:43:24.628Z,53.81
2023-04-15T14:48:26.720Z,53.47
2023-04-15T14:53:28.808Z,53.59
2023-04-15T14:58:30.588Z,53.13
2023-04-15T15:03:33.333Z,53.26
2023-04-15T15:08:37.200Z,52.96
2023-04-15T15:13:39.921Z,52.92
2023-04-15T15:18:42.268Z,52.66
2023-04-15T15:23:44.952Z,52.88
2023-04-15T15:28:47.287Z,52.36
2023-04-15T15:33:49.579Z,52.29
2023-04-15T15:38:52.142Z,52.26
2023-04-15T15:43:54.600Z,52.13
2023-04-15T15:48:56.457Z,52.35
2023-04-15T15:53:58.242Z,52.55
2023-04-15T15:59:00.057Z,52.16
2023-04-15T16:04:02.076Z,52.42
2023-04-15T16:09:04.449Z,52.18
2023-04-15T16:14:06.416Z,52.15
2023-04-15T16:19:08.181Z,52.15
2023-04-15T16:24:10.023Z,52.32
2023-04-15T16:29:11.846Z,52.56
2023-04-15T16:34:15.892Z,52.65
2023-04-15T16:39:17.678Z,52.52
2023-04-15T16:44:20.133Z,52.81
2023-04-15T16:49:22.111Z,52.59
2023-04-15T16:54:23.985Z,52.38
2023-04-15T16:59:26.023Z,52.43
2023-04-15T17:04:28.740Z,52.39
2023-04-15T17:09:30.612Z,52.54
2023-04-15T17:14:33.358Z,52.42
2023-04-15T17:19:35.224Z,52.48
2023-04-15T17:24:37.043Z,52.80
2023-04-15T17:29:38.879Z,52.70
2023-04-15T17:34:49.414Z,52.63
2023-04-15T17:39:53.026Z,52.83
2023-04-15T17:44:55.081Z,52.88
2023-04-15T17:49:56.849Z,52.69
2023-04-15T17:54:58.683Z,52.73
2023-04-15T18:00:00.902Z,53.00
2023-04-15T18:05:03.270Z,53.19
2023-04-15T18:10:06.026Z,53.29
2023-04-15T18:15:09.541Z,53.94
2023-04-15T18:20:12.620Z,54.08
2023-04-15T18:25:15.339Z,54.15
2023-04-15T18:30:17.846Z,54.42
2023-04-15T18:35:21.270Z,54.81
2023-04-15T18:40:23.260Z,55.14
2023-04-15T18:45:26.763Z,54.97
2023-04-15T18:50:29.198Z,55.34
2023-04-15T18:55:31.425Z,55.27
2023-04-15T19:00:33.717Z,55.29
2023-04-15T19:05:36.912Z,55.14
2023-04-15T19:10:39.405Z,55.43
2023-04-15T19:15:42.067Z,55.50
2023-04-15T19:20:44.114Z,55.32
2023-04-15T19:25:45.906Z,55.15
2023-04-15T19:30:48.402Z,55.16
2023-04-15T19:35:50.776Z,55.46
2023-04-15T19:40:52.677Z,55.41
2023-04-15T19:45:54.956Z,55.94
2023-04-15T19:50:58.242Z,55.92
2023-04-15T19:56:00.485Z,56.07
2023-04-15T20:01:02.402Z,56.11
2023-04-15T20:06:04.332Z,56.21
2023-04-15T20:11:06.246Z,56.62
2023-04-15T20:16:08.175Z,56.66
2023-04-15T20:21:10.039Z,56.84
2023-04-15T20:26:11.801Z,57.41
2023-04-15T20:31:13.642Z,57.74
2023-04-15T20:36:15.535Z,57.71
2023-04-15T20:41:17.482Z,57.92
2023-04-15T20:46:21.409Z,58.06
2023-04-15T20:51:23.586Z,57.94
2023-04-15T20:56:25.383Z,57.95
2023-04-15T21:01:27.439Z,57.84
2023-04-15T21:06:29.262Z,58.51
2023-04-15T21:11:53.305Z,58.90
2023-04-15T21:16:53.794Z,59.15
2023-04-15T21:21:55.639Z,59.29
2023-04-15T21:26:57.636Z,58.81
2023-04-15T21:31:59.427Z,58.61
2023-04-15T21:37:01.472Z,59.05
2023-04-15T21:42:03.439Z,59.26
2023-04-15T21:47:05.328Z,59.76
2023-04-15T21:52:07.289Z,59.96
2023-04-15T21:57:09.048Z,60.18
2023-04-15T22:02:10.966Z,59.77
2023-04-15T22:07:12.787Z,59.83
2023-04-15T22:12:14.848Z,59.87
2023-04-15T22:17:16.664Z,59.58
2023-04-15T22:22:18.436Z,60.36
2023-04-15T22:27:21.766Z,60.11
2023-04-15T22:32:23.557Z,59.95
2023-04-15T22:37:25.688Z,60.40
2023-04-15T22:42:27.508Z,60.16
2023-04-15T22:47:29.597Z,60.92
2023-04-15T22:52:31.564Z,61.07
2023-04-15T22:57:33.411Z,60.82
2023-04-15T23:02:35.383Z,61.32
2023-04-15T23:07:37.220Z,60.82
2023-04-15T23:12:39.011Z,61.17
2023-04-15T23:17:42.611Z,60.90
2023-04-15T23:22:44.564Z,61.12
2023-04-15T23:27:46.335Z,61.62
2023-04-15T23:32:48.388Z,61.13
2023-04-15T23:37:50.194Z,61.15
2023-04-15T23:42:52.070Z,61.14
2023-04-15T23:47:54.369Z,61.25
2023-04-15T23:52:56.446Z,60.71
2023-04-15T23:57:58.279Z,60.56
